Time;durP1;ratioP1;P1;durP2;ratioP2;P2;SDS_P1;SDS_P2;PMS_P1;PMS_P2;Temp;Humidity;BMP_temperature;BMP_pressure;BME280_temperature;BME280_humidity;BME280_pressure;Samples;Min_cycle;Max_cycle;Signal;HPM_P1;HPM_P2
2023/08/29 00:00:19;;;;;;;13.13;3.03;;;25.70;60.40;;;;;;5094554;28;20028;-83
2023/08/29 00:02:44;;;;;;;7.03;3.08;;;25.60;60.50;;;;;;5094382;28;20028;-84
2023/08/29 00:05:10;;;;;;;12.15;3.28;;;25.50;60.90;;;;;;5092789;28;20024;-83
2023/08/29 00:07:36;;;;;;;19.20;3.42;;;25.50;61.10;;;;;;5094513;28;20107;-83
2023/08/29 00:10:03;;;;;;;14.05;2.78;;;25.50;61.50;;;;;;5094161;28;20020;-83
2023/08/29 00:12:29;;;;;;;4.88;2.30;;;25.30;61.70;;;;;;5094164;28;20066;-83
2023/08/29 00:14:56;;;;;;;8.65;3.00;;;25.30;61.90;;;;;;5093199;28;20684;-83
2023/08/29 00:17:22;;;;;;;12.55;3.10;;;25.20;62.30;;;;;;5094283;28;20499;-83
2023/08/29 00:19:48;;;;;;;8.68;2.72;;;25.20;62.50;;;;;;5092242;28;20628;-84
2023/08/29 00:22:14;;;;;;;8.82;2.92;;;25.00;62.90;;;;;;5093021;28;20036;-83
2023/08/29 00:24:43;;;;;;;12.10;3.25;;;25.00;63.80;;;;;;5094030;28;20538;-83
2023/08/29 00:27:12;;;;;;;13.38;2.50;;;24.90;64.90;;;;;;5094136;28;20565;-83
2023/08/29 00:29:38;;;;;;;13.70;3.35;;;24.80;66.00;;;;;;5094193;28;20028;-84
2023/08/29 00:32:04;;;;;;;10.95;2.65;;;24.70;67.40;;;;;;5093785;28;20047;-83
2023/08/29 00:34:29;;;;;;;12.77;3.90;;;24.60;67.30;;;;;;5092795;28;20028;-83
2023/08/29 00:36:56;;;;;;;8.80;2.75;;;24.50;67.90;;;;;;5093590;28;20024;-83
2023/08/29 00:39:22;;;;;;;11.63;3.10;;;24.50;68.60;;;;;;5093744;28;20105;-84
2023/08/29 00:41:49;;;;;;;5.88;3.30;;;24.40;69.20;;;;;;5091770;28;20496;-83
2023/08/29 00:44:17;;;;;;;16.85;3.65;;;24.20;70.00;;;;;;5093502;28;20020;-83
2023/08/29 00:46:45;;;;;;;8.20;3.05;;;24.20;70.70;;;;;;5092155;28;20020;-83
2023/08/29 00:49:13;;;;;;;13.98;3.17;;;24.10;72.00;;;;;;5093358;28;20027;-84
2023/08/29 00:51:40;;;;;;;9.90;3.45;;;24.00;71.80;;;;;;5093651;28;20053;-83
2023/08/29 00:54:07;;;;;;;11.00;3.63;;;23.90;72.00;;;;;;5092130;28;20511;-83
2023/08/29 00:56:33;;;;;;;12.55;3.20;;;23.90;72.30;;;;;;5093022;28;20013;-83
2023/08/29 00:59:00;;;;;;;14.07;2.78;;;23.90;73.70;;;;;;5093473;28;20040;-83
2023/08/29 01:01:26;;;;;;;9.15;2.95;;;23.90;74.20;;;;;;5093030;28;20024;-83
2023/08/29 01:03:51;;;;;;;4.85;2.90;;;23.80;74.10;;;;;;5093155;28;20052;-83
2023/08/29 01:06:17;;;;;;;5.68;2.85;;;23.80;74.50;;;;;;5093356;28;20063;-83
2023/08/29 01:08:44;;;;;;;10.35;3.45;;;23.80;75.00;;;;;;5091330;28;20119;-84
2023/08/29 01:11:25;;;;;;;7.47;2.67;;;23.70;75.80;;;;;;5091366;28;20089;-83
2023/08/29 01:14:16;;;;;;;5.93;3.63;;;23.70;77.70;;;;;;5091870;28;20027;-83
2023/08/29 01:16:49;;;;;;;12.90;3.35;;;23.70;78.10;;;;;;5091994;28;20070;-82
2023/08/29 01:19:15;;;;;;;6.97;3.60;;;23.70;78.60;;;;;;5091522;28;20055;-84
2023/08/29 01:21:53;;;;;;;13.18;2.92;;;23.60;80.00;;;;;;5092809;28;20484;-84
2023/08/29 01:24:29;;;;;;;7.25;2.97;;;23.60;81.20;;;;;;5092956;28;20073;-84
2023/08/29 01:26:56;;;;;;;8.88;3.47;;;23.40;81.80;;;;;;5092614;28;20023;-84
2023/08/29 01:29:22;;;;;;;13.68;3.22;;;23.40;82.50;;;;;;5091210;28;20118;-84
2023/08/29 01:31:50;;;;;;;15.48;3.05;;;23.30;83.40;;;;;;5091496;28;20048;-85
2023/08/29 01:34:16;;;;;;;14.00;3.67;;;23.30;83.00;;;;;;5092459;28;20576;-84
2023/08/29 01:36:43;;;;;;;14.43;3.08;;;23.30;84.10;;;;;;5091550;28;20031;-83
2023/08/29 01:39:09;;;;;;;14.43;3.28;;;23.20;84.10;;;;;;5092499;28;20039;-84
2023/08/29 01:41:35;;;;;;;7.05;3.50;;;23.20;84.40;;;;;;5092637;28;20374;-84
2023/08/29 01:44:05;;;;;;;11.27;2.88;;;23.20;85.50;;;;;;5091130;28;20039;-84
2023/08/29 01:46:31;;;;;;;14.55;3.20;;;23.20;85.50;;;;;;5092658;28;20023;-84
2023/08/29 01:48:58;;;;;;;5.63;2.78;;;23.20;85.20;;;;;;5091435;28;20032;-84
2023/08/29 01:51:25;;;;;;;13.98;3.42;;;23.20;85.20;;;;;;5091446;28;20388;-83
2023/08/29 01:53:52;;;;;;;8.93;3.17;;;23.20;85.30;;;;;;5090865;28;20097;-85
2023/08/29 01:56:20;;;;;;;10.93;3.45;;;23.20;85.40;;;;;;5092147;28;20032;-84
2023/08/29 01:58:47;;;;;;;8.13;2.78;;;23.30;85.90;;;;;;5091108;28;20046;-85
2023/08/29 02:01:14;;;;;;;12.13;3.10;;;23.20;87.00;;;;;;5092022;28;20028;-85
2023/08/29 02:03:41;;;;;;;12.75;3.80;;;23.20;87.80;;;;;;5092038;28;20778;-85
2023/08/29 02:06:07;;;;;;;11.35;3.10;;;23.20;88.40;;;;;;5091887;28;20020;-85
2023/08/29 02:08:32;;;;;;;15.38;3.58;;;23.20;88.90;;;;;;5092246;28;20520;-84
2023/08/29 02:10:58;;;;;;;8.82;3.20;;;23.20;89.20;;;;;;5092238;28;20028;-84
2023/08/29 02:13:24;;;;;;;5.65;3.08;;;23.10;90.10;;;;;;5090226;28;20077;-84
2023/08/29 02:15:49;;;;;;;9.18;2.88;;;23.00;90.40;;;;;;5089166;28;20124;-84
2023/08/29 02:18:15;;;;;;;23.90;5.28;;;23.00;90.70;;;;;;5091007;28;20497;-85
2023/08/29 02:20:40;;;;;;;6.55;3.08;;;23.00;91.00;;;;;;5092018;28;20028;-84
2023/08/29 02:23:06;;;;;;;12.23;4.07;;;23.00;91.50;;;;;;5092018;28;20024;-85
2023/08/29 02:25:32;;;;;;;8.65;3.10;;;23.00;91.90;;;;;;5092470;28;20490;-85
2023/08/29 02:27:58;;;;;;;9.35;3.38;;;23.00;92.40;;;;;;5091747;28;20046;-85
2023/08/29 02:30:24;;;;;;;12.10;3.42;;;23.10;92.50;;;;;;5091873;28;20042;-84
2023/08/29 02:32:49;;;;;;;11.95;3.75;;;23.10;94.20;;;;;;5091895;28;20028;-85
2023/08/29 02:35:15;;;;;;;8.93;3.70;;;23.00;96.60;;;;;;5091847;28;20028;-85
2023/08/29 02:37:41;;;;;;;13.95;3.40;;;22.90;97.50;;;;;;5091924;28;20492;-84
2023/08/29 02:40:08;;;;;;;16.58;3.25;;;22.70;98.40;;;;;;5092041;28;20046;-86
2023/08/29 02:42:34;;;;;;;9.20;3.70;;;22.60;99.00;;;;;;5091945;28;20020;-82
2023/08/29 02:45:00;;;;;;;8.57;3.65;;;22.50;99.90;;;;;;5090963;28;20031;-83
2023/08/29 02:47:26;;;;;;;12.05;4.15;;;22.40;99.90;;;;;;5090956;28;20031;-82
2023/08/29 02:49:52;;;;;;;11.60;4.72;;;22.30;99.90;;;;;;5091727;28;20473;-82
2023/08/29 02:52:18;;;;;;;8.05;4.20;;;22.30;99.90;;;;;;5090146;28;20132;-82
2023/08/29 02:54:44;;;;;;;5.88;3.55;;;22.20;99.90;;;;;;5090376;28;20481;-83
2023/08/29 02:57:10;;;;;;;12.98;3.97;;;22.20;99.90;;;;;;5090631;28;20039;-82
2023/08/29 02:59:35;;;;;;;8.70;4.45;;;22.20;99.90;;;;;;5090568;28;20115;-84
2023/08/29 03:02:03;;;;;;;12.27;4.93;;;22.20;99.90;;;;;;5090348;28;20499;-84
2023/08/29 03:04:30;;;;;;;14.13;4.45;;;22.20;99.90;;;;;;5090656;28;20039;-81
2023/08/29 03:06:56;;;;;;;12.80;5.78;;;22.20;99.90;;;;;;5091974;28;20035;-82
2023/08/29 03:09:21;;;;;;;14.38;4.63;;;22.10;99.90;;;;;;5091527;28;20027;-82
2023/08/29 03:11:47;;;;;;;9.35;4.32;;;22.20;99.90;;;;;;5091363;28;20036;-80
2023/08/29 03:14:14;;;;;;;11.93;5.43;;;22.30;99.90;;;;;;5091581;28;20036;-82
2023/08/29 03:16:39;;;;;;;9.30;5.13;;;22.30;99.90;;;;;;5091557;28;20028;-82
2023/08/29 03:19:05;;;;;;;14.77;5.40;;;22.40;99.90;;;;;;5092669;28;20039;-85
2023/08/29 03:21:31;;;;;;;10.45;4.80;;;22.40;99.90;;;;;;5095021;28;20069;-84
2023/08/29 03:23:56;;;;;;;12.85;5.72;;;22.40;99.90;;;;;;5095250;28;20109;-83
2023/08/29 03:26:22;;;;;;;12.30;4.88;;;22.50;99.90;;;;;;5095176;28;20028;-83
2023/08/29 03:28:48;;;;;;;17.52;6.40;;;22.60;99.90;;;;;;5094671;28;20500;-83
2023/08/29 03:31:16;;;;;;;20.95;6.07;;;22.60;99.90;;;;;;5094549;28;20017;-82
2023/08/29 03:33:43;;;;;;;13.18;5.72;;;22.60;99.90;;;;;;5094669;28;20038;-83
2023/08/29 03:36:10;;;;;;;17.67;5.80;;;22.60;99.90;;;;;;5094976;28;20024;-81
2023/08/29 03:38:40;;;;;;;15.02;5.93;;;22.50;99.90;;;;;;5093946;28;20032;-83
2023/08/29 03:41:07;;;;;;;12.43;5.60;;;22.40;99.90;;;;;;5095477;28;20028;-83
2023/08/29 03:43:34;;;;;;;23.85;6.13;;;22.40;99.90;;;;;;5095368;28;20020;-83
2023/08/29 03:46:07;;;;;;;13.45;5.90;;;22.30;99.90;;;;;;5094006;28;20066;-83
2023/08/29 03:48:34;;;;;;;15.85;6.47;;;22.20;99.90;;;;;;5094248;28;20081;-83
2023/08/29 03:51:05;;;;;;;16.90;5.35;;;22.00;99.90;;;;;;5092859;28;20032;-83
2023/08/29 03:53:31;;;;;;;16.92;4.63;;;22.00;99.90;;;;;;5094279;28;20119;-83
2023/08/29 03:56:00;;;;;;;13.20;5.05;;;22.00;99.90;;;;;;5093920;28;20055;-82
2023/08/29 03:58:26;;;;;;;13.38;4.85;;;21.90;99.90;;;;;;5093603;28;20032;-83
2023/08/29 04:00:53;;;;;;;15.05;4.68;;;22.00;99.90;;;;;;5095080;28;20107;-83
2023/08/29 04:03:19;;;;;;;12.70;4.47;;;22.00;99.90;;;;;;5095240;28;20361;-83
2023/08/29 04:05:46;;;;;;;9.82;3.95;;;22.10;99.90;;;;;;5093862;28;20035;-83
2023/08/29 04:08:12;;;;;;;26.08;4.55;;;22.20;99.90;;;;;;5095190;28;20020;-84
2023/08/29 04:10:38;;;;;;;17.83;4.68;;;22.30;99.90;;;;;;5093530;28;20020;-84
2023/08/29 04:13:06;;;;;;;10.65;4.53;;;22.40;99.90;;;;;;5093516;28;20027;-84
2023/08/29 04:15:32;;;;;;;9.40;4.07;;;22.40;99.90;;;;;;5094835;28;20055;-83
2023/08/29 04:17:58;;;;;;;11.57;3.60;;;22.30;99.90;;;;;;5095067;28;20032;-84
2023/08/29 04:20:24;;;;;;;14.93;3.45;;;22.40;99.90;;;;;;5095115;28;20026;-83
2023/08/29 04:22:49;;;;;;;10.93;3.28;;;22.40;99.90;;;;;;5094988;28;20487;-83
2023/08/29 04:25:15;;;;;;;15.90;3.17;;;22.60;99.90;;;;;;5093614;28;20117;-83
2023/08/29 04:27:41;;;;;;;14.90;3.47;;;22.70;99.90;;;;;;5093789;28;20515;-83
2023/08/29 04:30:07;;;;;;;12.95;3.38;;;22.80;99.90;;;;;;5092436;28;20507;-84
2023/08/29 04:32:37;;;;;;;9.25;3.70;;;22.90;99.90;;;;;;5092257;28;20032;-84
2023/08/29 04:35:06;;;;;;;10.10;3.03;;;22.90;99.90;;;;;;5092898;28;20135;-83
2023/08/29 04:37:35;;;;;;;7.78;2.92;;;23.00;99.90;;;;;;5093531;28;20032;-83
2023/08/29 04:40:01;;;;;;;16.67;4.15;;;23.20;98.00;;;;;;5093595;28;20055;-81
2023/08/29 04:42:27;;;;;;;7.38;3.03;;;23.20;97.70;;;;;;5093967;28;20085;-83
2023/08/29 04:44:53;;;;;;;13.63;3.95;;;23.30;96.30;;;;;;5093204;28;20502;-84
2023/08/29 04:47:22;;;;;;;10.40;3.58;;;23.40;96.60;;;;;;5092674;28;20027;-83
2023/08/29 04:49:48;;;;;;;8.65;3.42;;;23.50;96.30;;;;;;5074067;28;20657;-84
2023/08/29 04:52:14;;;;;;;12.73;3.08;;;23.60;96.60;;;;;;5074033;28;20032;-84
2023/08/29 04:54:39;;;;;;;12.05;3.08;;;23.60;97.20;;;;;;5074144;28;20017;-84
2023/08/29 04:57:05;;;;;;;10.18;3.92;;;23.60;97.70;;;;;;5072656;28;20029;-84
2023/08/29 04:59:31;;;;;;;10.60;3.08;;;23.60;97.50;;;;;;5072972;28;20029;-86
2023/08/29 05:01:56;;;;;;;9.70;3.38;;;23.70;97.40;;;;;;5072708;28;20439;-86
2023/08/29 05:04:22;;;;;;;16.85;3.53;;;23.70;97.50;;;;;;5074346;28;20111;-85
2023/08/29 05:06:48;;;;;;;12.32;3.78;;;23.80;97.70;;;;;;5073992;28;20024;-86
2023/08/29 05:09:14;;;;;;;13.25;3.67;;;23.80;97.60;;;;;;5074223;28;20055;-86
2023/08/29 05:11:40;;;;;;;10.27;4.05;;;24.00;96.50;;;;;;5071030;28;20497;-84
2023/08/29 05:14:05;;;;;;;12.27;3.22;;;24.10;96.10;;;;;;5087240;28;20099;-84
2023/08/29 05:16:34;;;;;;;10.20;3.28;;;24.20;96.70;;;;;;5072120;28;20036;-86
2023/08/29 05:18:59;;;;;;;10.40;3.25;;;24.30;97.10;;;;;;5070436;28;20094;-81
2023/08/29 05:21:25;;;;;;;8.77;2.90;;;24.40;97.20;;;;;;5071087;28;20024;-82
2023/08/29 05:23:51;;;;;;;10.30;3.70;;;24.60;96.50;;;;;;5069633;28;20056;-82
2023/08/29 05:26:17;;;;;;;13.00;3.38;;;24.60;96.60;;;;;;5070821;28;20063;-82
2023/08/29 05:28:42;;;;;;;11.05;3.83;;;24.70;96.70;;;;;;5070931;28;20056;-81
2023/08/29 05:31:08;;;;;;;10.40;3.85;;;24.70;97.20;;;;;;5070625;28;20047;-79
2023/08/29 05:33:34;;;;;;;13.32;3.88;;;24.80;97.80;;;;;;5070855;28;20405;-80
2023/08/29 05:35:59;;;;;;;11.48;3.88;;;24.80;97.60;;;;;;5070713;28;20020;-80
2023/08/29 05:38:27;;;;;;;6.82;2.92;;;24.80;97.90;;;;;;5069080;28;20036;-79
2023/08/29 05:40:53;;;;;;;12.32;3.33;;;24.80;98.00;;;;;;5070197;28;20025;-79
2023/08/29 05:43:19;;;;;;;19.67;4.35;;;24.80;98.70;;;;;;5069222;28;20033;-79
2023/08/29 05:45:45;;;;;;;14.32;4.57;;;24.80;98.60;;;;;;5070576;28;20032;-79
2023/08/29 05:48:11;;;;;;;12.80;3.90;;;24.80;99.50;;;;;;5070262;28;20086;-79
2023/08/29 05:50:40;;;;;;;12.25;3.92;;;24.90;99.90;;;;;;5068938;28;20025;-79
2023/08/29 05:53:06;;;;;;;14.32;4.00;;;24.90;99.90;;;;;;5069057;28;20052;-79
2023/08/29 05:55:32;;;;;;;16.25;3.35;;;24.90;99.90;;;;;;5069051;28;20029;-81
2023/08/29 05:57:59;;;;;;;16.17;3.67;;;25.00;98.60;;;;;;5069274;28;20043;-82
2023/08/29 06:00:25;;;;;;;10.27;3.72;;;25.20;97.60;;;;;;5070968;28;20028;-80
2023/08/29 06:02:52;;;;;;;10.10;3.35;;;25.40;96.80;;;;;;5070894;28;20025;-80
2023/08/29 06:05:18;;;;;;;10.98;2.95;;;25.50;96.30;;;;;;5068780;28;20556;-78
2023/08/29 06:07:44;;;;;;;12.10;3.20;;;25.70;96.00;;;;;;5070031;28;20028;-78
2023/08/29 06:10:10;;;;;;;12.35;3.70;;;25.80;95.20;;;;;;5069917;28;20101;-78
2023/08/29 06:12:35;;;;;;;14.50;3.60;;;25.70;93.90;;;;;;5068827;28;20032;-79
2023/08/29 06:15:01;;;;;;;16.67;4.15;;;25.70;93.40;;;;;;5085623;28;20067;-80
2023/08/29 06:17:26;;;;;;;11.52;3.63;;;25.60;92.80;;;;;;5070718;28;20686;-80
2023/08/29 06:19:52;;;;;;;11.00;3.25;;;25.50;92.60;;;;;;5069804;28;20046;-79
2023/08/29 06:22:19;;;;;;;16.83;4.43;;;25.40;92.00;;;;;;5068735;28;20047;-80
2023/08/29 06:24:45;;;;;;;9.35;4.35;;;25.30;93.00;;;;;;5068808;28;20047;-80
2023/08/29 06:27:10;;;;;;;9.63;3.25;;;25.30;93.00;;;;;;5069676;28;20038;-81
2023/08/29 06:29:36;;;;;;;9.05;3.05;;;25.30;93.10;;;;;;5070127;28;20779;-80
2023/08/29 06:32:02;;;;;;;14.30;3.45;;;25.30;93.30;;;;;;5069935;28;20128;-80
2023/08/29 06:34:27;;;;;;;10.45;3.38;;;25.40;93.20;;;;;;5069760;28;20043;-80
2023/08/29 06:36:53;;;;;;;13.30;3.85;;;25.50;93.10;;;;;;5069962;28;20107;-80
2023/08/29 06:39:19;;;;;;;12.55;4.72;;;25.60;93.10;;;;;;5068671;28;20036;-79
2023/08/29 06:41:45;;;;;;;8.02;3.28;;;25.60;92.50;;;;;;5069533;28;20033;-80
2023/08/29 06:44:11;;;;;;;12.32;3.40;;;25.70;92.00;;;;;;5069627;28;20056;-79
2023/08/29 06:46:37;;;;;;;13.10;4.05;;;25.80;91.10;;;;;;5085227;28;20056;-80
2023/08/29 06:49:05;;;;;;;17.15;3.72;;;26.00;90.60;;;;;;5068356;28;20081;-80
2023/08/29 06:51:31;;;;;;;11.38;3.47;;;26.20;90.20;;;;;;5069440;28;20028;-80
2023/08/29 06:53:57;;;;;;;9.45;3.40;;;26.40;86.60;;;;;;5067350;28;20066;-80
2023/08/29 06:56:23;;;;;;;9.38;3.25;;;26.60;85.80;;;;;;5068100;28;20029;-80
2023/08/29 06:58:49;;;;;;;9.23;3.97;;;26.90;89.40;;;;;;5085008;28;20051;-79
2023/08/29 07:01:14;;;;;;;14.15;3.20;;;27.20;89.20;;;;;;5069587;28;20016;-79
2023/08/29 07:03:40;;;;;;;17.83;3.47;;;27.50;88.80;;;;;;5068187;28;20029;-79
2023/08/29 07:06:06;;;;;;;14.57;3.60;;;27.90;87.30;;;;;;5067906;28;20021;-82
2023/08/29 07:08:32;;;;;;;16.98;3.28;;;28.30;83.30;;;;;;5068763;28;20028;-81
2023/08/29 07:10:58;;;;;;;35.85;7.55;;;28.60;77.40;;;;;;5085161;28;20031;-81
2023/08/29 07:13:23;;;;;;;10.85;2.85;;;29.00;74.20;;;;;;5069845;28;20032;-81
2023/08/29 07:15:49;;;;;;;9.55;3.10;;;29.30;71.80;;;;;;5084699;28;20465;-79
2023/08/29 07:18:15;;;;;;;9.57;3.70;;;29.50;71.00;;;;;;5067412;28;20444;-78
2023/08/29 07:20:40;;;;;;;10.82;2.90;;;29.60;68.30;;;;;;5069060;28;20067;-77
2023/08/29 07:23:06;;;;;;;10.70;3.60;;;29.50;68.10;;;;;;5069224;28;20020;-78
2023/08/29 07:25:50;;;;;;;11.40;3.05;;;29.70;68.60;;;;;;5069222;28;20438;-79
2023/08/29 07:28:16;;;;;;;10.13;3.30;;;29.90;69.50;;;;;;5068322;28;20047;-81
2023/08/29 07:30:47;;;;;;;17.20;3.35;;;30.20;70.00;;;;;;5069426;28;20028;-81
2023/08/29 07:33:14;;;;;;;6.95;3.45;;;30.50;67.50;;;;;;5067792;28;20568;-79
2023/08/29 07:35:40;;;;;;;10.38;4.20;;;30.60;66.80;;;;;;5069041;28;20028;-79
2023/08/29 07:38:07;;;;;;;7.78;3.15;;;30.60;64.60;;;;;;5068822;28;20043;-79
2023/08/29 07:40:33;;;;;;;10.13;3.38;;;30.50;63.40;;;;;;5068980;28;20029;-81
2023/08/29 07:43:03;;;;;;;8.55;3.13;;;30.60;64.50;;;;;;5067739;28;20032;-80
2023/08/29 07:45:30;;;;;;;11.27;2.95;;;30.50;66.00;;;;;;5068940;28;20028;-79
2023/08/29 07:47:55;;;;;;;8.20;3.10;;;30.30;64.00;;;;;;5068768;28;20055;-80
2023/08/29 07:50:21;;;;;;;11.70;3.67;;;30.20;62.90;;;;;;5067759;28;20028;-79
2023/08/29 07:52:47;;;;;;;8.43;3.22;;;30.20;62.60;;;;;;5067858;28;20358;-80
2023/08/29 07:55:12;;;;;;;17.85;3.80;;;30.10;63.60;;;;;;5068706;28;20033;-80
2023/08/29 07:57:38;;;;;;;12.35;3.50;;;29.80;67.10;;;;;;5067167;28;20025;-80
2023/08/29 08:00:08;;;;;;;11.95;3.63;;;29.70;68.20;;;;;;5068938;28;20485;-80
2023/08/29 08:02:38;;;;;;;8.60;3.30;;;29.50;68.60;;;;;;5084319;28;20028;-80
2023/08/29 08:05:14;;;;;;;8.77;3.53;;;29.50;69.30;;;;;;5069677;28;20031;-81
2023/08/29 08:07:41;;;;;;;7.95;3.20;;;29.60;67.80;;;;;;5072401;28;20103;-81
2023/08/29 08:10:07;;;;;;;15.02;3.70;;;29.70;66.70;;;;;;5071053;28;20037;-81
2023/08/29 08:12:34;;;;;;;13.48;3.55;;;29.90;67.00;;;;;;5072335;28;20035;-81
2023/08/29 08:15:00;;;;;;;9.60;2.95;;;30.00;65.70;;;;;;5072017;28;20057;-79
2023/08/29 08:17:26;;;;;;;11.95;4.28;;;29.90;64.90;;;;;;5070766;28;20504;-78
2023/08/29 08:19:52;;;;;;;10.55;3.55;;;29.80;64.80;;;;;;5072077;28;20060;-80
2023/08/29 08:22:18;;;;;;;13.98;3.15;;;29.80;64.20;;;;;;5072143;28;20504;-80
2023/08/29 08:24:43;;;;;;;14.85;4.07;;;29.70;65.10;;;;;;5072079;28;20110;-81
2023/08/29 08:27:09;;;;;;;13.15;3.25;;;29.60;66.10;;;;;;5072265;28;20056;-80
2023/08/29 08:29:35;;;;;;;17.67;4.30;;;29.60;65.20;;;;;;5087596;28;20020;-80
2023/08/29 08:32:01;;;;;;;12.18;3.75;;;29.60;61.50;;;;;;5071003;28;20036;-80
2023/08/29 08:34:27;;;;;;;12.70;3.70;;;29.50;60.80;;;;;;5072025;28;20025;-78
2023/08/29 08:36:53;;;;;;;7.88;3.20;;;29.40;62.60;;;;;;5070643;28;20033;-79
2023/08/29 08:39:18;;;;;;;7.47;3.17;;;29.30;63.60;;;;;;5071742;28;20039;-77
2023/08/29 08:41:44;;;;;;;10.45;3.72;;;29.20;64.00;;;;;;5072365;28;20024;-82
2023/08/29 08:44:17;;;;;;;13.55;4.13;;;29.10;66.50;;;;;;5070573;28;20051;-81
2023/08/29 08:46:43;;;;;;;11.00;3.30;;;29.20;64.90;;;;;;5071744;28;20036;-80
2023/08/29 08:49:10;;;;;;;12.40;3.95;;;29.50;64.50;;;;;;5071557;28;20032;-80
2023/08/29 08:51:39;;;;;;;18.42;4.22;;;29.80;63.20;;;;;;5071741;28;20094;-81
2023/08/29 08:54:09;;;;;;;16.08;3.67;;;30.20;62.60;;;;;;5071942;28;20029;-80
2023/08/29 08:56:36;;;;;;;13.20;4.18;;;30.50;60.70;;;;;;5071229;28;20111;-79
2023/08/29 08:59:03;;;;;;;17.17;3.95;;;30.70;60.50;;;;;;5071269;28;20097;-79
2023/08/29 09:01:29;;;;;;;11.95;3.60;;;30.80;60.60;;;;;;5071284;28;20020;-80
2023/08/29 09:03:55;;;;;;;19.50;4.38;;;30.70;61.00;;;;;;5071255;28;20089;-78
2023/08/29 09:06:21;;;;;;;16.38;3.88;;;30.60;64.20;;;;;;5071567;28;20016;-80
2023/08/29 09:08:46;;;;;;;17.02;4.07;;;30.20;68.80;;;;;;5087000;28;20398;-79
2023/08/29 09:11:12;;;;;;;9.02;4.25;;;29.60;71.60;;;;;;5071140;28;20052;-79
2023/08/29 09:13:48;;;;;;;11.73;4.00;;;29.20;70.70;;;;;;5069692;28;20523;-79
2023/08/29 09:16:14;;;;;;;;;;;29.00;71.60;;;;;;5069328;28;20076;-78
2023/08/29 09:18:43;;;;;;;9.80;4.03;;;28.70;71.80;;;;;;5070919;28;20360;-79
2023/08/29 09:21:21;;;;;;;13.48;5.18;;;28.40;73.40;;;;;;5069775;28;20477;-77
2023/08/29 09:23:47;;;;;;;15.38;4.38;;;28.00;76.90;;;;;;5069559;28;20135;-78
2023/08/29 09:26:13;;;;;;;12.43;4.63;;;27.70;79.70;;;;;;5070736;28;20517;-79
2023/08/29 09:28:40;;;;;;;15.63;5.25;;;27.40;81.10;;;;;;5070720;28;20017;-78
2023/08/29 09:31:07;;;;;;;13.90;5.03;;;27.10;80.80;;;;;;5070814;28;20056;-78
2023/08/29 09:33:34;;;;;;;15.73;4.22;;;26.90;80.00;;;;;;5069393;28;20028;-81
2023/08/29 09:36:06;;;;;;;9.05;3.90;;;26.60;79.20;;;;;;5070777;28;20410;-78
2023/08/29 09:38:34;;;;;;;13.23;5.00;;;26.50;79.50;;;;;;5070558;28;20032;-78
2023/08/29 09:41:00;;;;;;;10.95;3.88;;;26.50;79.80;;;;;;5072372;28;20059;-84
2023/08/29 09:43:30;;;;;;;10.82;5.18;;;26.50;79.70;;;;;;5073635;28;20029;-86
2023/08/29 09:45:57;;;;;;;10.02;3.83;;;26.30;80.40;;;;;;5081928;28;20046;-86
2023/08/29 09:48:23;;;;;;;11.70;4.05;;;26.20;81.90;;;;;;5079292;28;20029;-86
2023/08/29 09:50:50;;;;;;;10.15;3.95;;;26.20;83.00;;;;;;5073489;28;20078;-86
2023/08/29 09:53:18;;;;;;;13.85;3.45;;;26.10;84.10;;;;;;5073779;28;20036;-84
2023/08/29 09:55:54;;;;;;;13.52;4.32;;;26.10;84.70;;;;;;5071378;28;20515;-82
2023/08/29 09:58:22;;;;;;;9.25;4.43;;;26.10;85.80;;;;;;5071473;28;20081;-84
2023/08/29 10:00:50;;;;;;;11.30;4.65;;;25.90;86.20;;;;;;5083847;28;20501;-83
2023/08/29 10:03:17;;;;;;;11.35;4.28;;;25.70;85.50;;;;;;5090999;28;20106;-82
2023/08/29 10:05:44;;;;;;;12.80;4.32;;;25.50;84.50;;;;;;5090634;28;20051;-84
2023/08/29 10:08:53;;;;;;;6.97;3.17;;;25.30;84.50;;;;;;5091156;28;20103;-83
2023/08/29 10:11:20;;;;;;;13.05;3.70;;;25.00;86.20;;;;;;5090965;28;20031;-87
2023/08/29 10:13:48;;;;;;;18.10;4.93;;;24.60;89.70;;;;;;5090091;28;20028;-83
2023/08/29 10:16:15;;;;;;;21.75;6.15;;;24.20;94.80;;;;;;5089619;28;20143;-85
2023/08/29 10:18:42;;;;;;;15.05;5.13;;;23.80;99.90;;;;;;5090977;28;20028;-85
2023/08/29 10:21:09;;;;;;;35.05;8.30;;;23.40;99.90;;;;;;5090767;28;20107;-86
2023/08/29 10:23:36;;;;;;;26.27;8.23;;;23.00;99.90;;;;;;5090988;28;20020;-84
2023/08/29 10:26:02;;;;;;;19.10;7.18;;;22.80;99.90;;;;;;5090847;28;20143;-86
2023/08/29 10:28:30;;;;;;;18.33;6.45;;;22.70;99.90;;;;;;5093235;28;20173;-85
2023/08/29 10:31:00;;;;;;;19.90;7.03;;;22.70;99.90;;;;;;5092334;28;20024;-87
2023/08/29 10:33:26;;;;;;;14.73;5.50;;;22.90;99.90;;;;;;5086384;28;20020;-87
2023/08/29 10:35:52;;;;;;;14.45;6.38;;;23.20;99.90;;;;;;5091849;28;20024;-85
2023/08/29 10:38:18;;;;;;;12.45;6.03;;;23.40;99.90;;;;;;5092443;28;20028;-86
2023/08/29 10:40:46;;;;;;;16.15;7.20;;;23.60;99.90;;;;;;5091654;28;20645;-85
2023/08/29 10:43:19;;;;;;;16.38;6.00;;;23.70;99.90;;;;;;5092619;28;20023;-84
2023/08/29 10:45:51;;;;;;;18.23;5.80;;;23.60;99.90;;;;;;5092396;28;20020;-84
2023/08/29 10:48:17;;;;;;;13.40;5.30;;;23.60;99.90;;;;;;5092324;28;20020;-83
2023/08/29 10:51:08;;;;;;;12.32;6.00;;;23.60;99.90;;;;;;5091186;28;20384;-85
2023/08/29 10:53:38;;;;;;;16.38;5.40;;;23.60;99.90;;;;;;5092129;28;20039;-84
2023/08/29 10:56:07;;;;;;;10.77;5.32;;;23.60;99.90;;;;;;5091281;28;20028;-85
2023/08/29 10:58:39;;;;;;;9.75;4.97;;;23.60;99.90;;;;;;5091851;28;20024;-86
2023/08/29 11:01:06;;;;;;;14.95;5.80;;;23.70;99.90;;;;;;5091510;28;20512;-84
2023/08/29 11:03:44;;;;;;;17.95;5.47;;;23.70;99.90;;;;;;5087463;28;20033;-85
2023/08/29 11:06:10;;;;;;;14.27;5.30;;;23.60;99.90;;;;;;5088543;28;20472;-86
2023/08/29 11:08:36;;;;;;;13.50;5.25;;;23.50;99.90;;;;;;5091616;28;20034;-84
2023/08/29 11:11:21;;;;;;;13.57;5.60;;;23.40;99.90;;;;;;5090163;28;20370;-85
2023/08/29 11:13:58;;;;;;;12.07;4.65;;;23.30;99.90;;;;;;5089847;28;20024;-84
2023/08/29 11:16:24;;;;;;;14.27;4.70;;;23.40;99.90;;;;;;5090308;28;20048;-85
2023/08/29 11:19:15;;;;;;;16.20;4.82;;;23.50;99.90;;;;;;5091229;28;20036;-84
2023/08/29 11:21:47;;;;;;;14.68;5.50;;;23.70;99.90;;;;;;5092180;28;20028;-84
2023/08/29 11:24:13;;;;;;;17.10;5.93;;;23.80;99.90;;;;;;5092053;28;20050;-85
2023/08/29 11:26:40;;;;;;;11.38;4.82;;;24.00;99.90;;;;;;5086222;28;20066;-84
2023/08/29 11:29:06;;;;;;;10.73;4.85;;;24.20;99.90;;;;;;5090918;28;20043;-84
2023/08/29 11:31:41;;;;;;;12.00;4.47;;;24.50;99.90;;;;;;5091341;28;20032;-84
2023/08/29 11:34:17;;;;;;;12.98;4.97;;;24.70;99.90;;;;;;5092507;28;20388;-84
2023/08/29 11:36:48;;;;;;;12.70;5.30;;;24.70;99.90;;;;;;5091264;28;20065;-83
2023/08/29 11:39:17;;;;;;;11.70;4.50;;;24.70;99.90;;;;;;5092449;28;20035;-84
2023/08/29 11:41:45;;;;;;;12.55;4.70;;;24.80;99.90;;;;;;5083967;28;20060;-85
2023/08/29 11:44:11;;;;;;;9.73;4.78;;;24.90;99.90;;;;;;5080753;28;20032;-84
2023/08/29 11:46:37;;;;;;;11.95;5.40;;;25.10;99.90;;;;;;5087934;28;20052;-84
2023/08/29 11:49:13;;;;;;;10.30;4.18;;;25.40;99.90;;;;;;5088246;28;20110;-85
2023/08/29 11:51:39;;;;;;;10.15;4.25;;;25.50;99.90;;;;;;5082057;28;20017;-85
2023/08/29 11:54:25;;;;;;;9.98;5.55;;;25.60;99.90;;;;;;5094513;28;20053;-85
2023/08/29 11:56:55;;;;;;;14.02;5.45;;;25.70;99.90;;;;;;5094283;28;20024;-85
2023/08/29 11:59:21;;;;;;;12.15;5.47;;;25.90;99.90;;;;;;5094285;28;20036;-84
2023/08/29 12:01:46;;;;;;;7.82;4.82;;;26.00;99.90;;;;;;5094134;28;20404;-85
2023/08/29 12:04:12;;;;;;;10.73;4.60;;;26.10;99.90;;;;;;5095109;28;20089;-85
2023/08/29 12:06:38;;;;;;;15.88;4.60;;;26.40;99.90;;;;;;5093957;28;20097;-85
2023/08/29 12:09:03;;;;;;;9.68;4.72;;;26.60;99.90;;;;;;5095514;28;20488;-85
2023/08/29 12:11:43;;;;;;;19.25;5.32;;;26.90;99.90;;;;;;5095761;28;20103;-85
2023/08/29 12:14:09;;;;;;;6.82;4.03;;;27.30;99.90;;;;;;5094047;28;20034;-85
2023/08/29 12:16:35;;;;;;;10.07;5.72;;;27.70;99.90;;;;;;5093961;28;20451;-86
2023/08/29 12:19:12;;;;;;;10.25;4.25;;;28.00;99.90;;;;;;5092003;28;20495;-85
2023/08/29 12:21:37;;;;;;;11.07;4.75;;;28.20;99.90;;;;;;5093224;28;20029;-84
2023/08/29 12:24:10;;;;;;;10.70;4.38;;;28.30;99.90;;;;;;5094755;28;20028;-86
2023/08/29 12:26:36;;;;;;;8.70;3.92;;;28.30;99.40;;;;;;5095111;28;20043;-86
2023/08/29 12:29:02;;;;;;;11.82;4.10;;;28.30;98.70;;;;;;5094182;28;20032;-86
2023/08/29 12:31:27;;;;;;;9.02;4.93;;;28.40;97.30;;;;;;5095053;28;20555;-85
2023/08/29 12:33:53;;;;;;;12.82;4.45;;;28.30;96.90;;;;;;5095156;28;20055;-85
2023/08/29 12:36:19;;;;;;;11.95;4.00;;;28.20;97.10;;;;;;5094006;28;20087;-85
2023/08/29 12:38:45;;;;;;;14.40;4.35;;;28.10;97.30;;;;;;5093715;28;20039;-85
2023/08/29 12:41:12;;;;;;;8.52;4.57;;;27.90;98.10;;;;;;5094075;28;20024;-85